Time;durP1;ratioP1;P1;durP2;ratioP2;P2;SDS_P1;SDS_P2;PMS_P1;PMS_P2;Temp;Humidity;BMP_temperature;BMP_pressure;BME280_temperature;BME280_humidity;BME280_pressure;Samples;Min_cycle;Max_cycle;Signal;HPM_P1;HPM_P2
2023/05/17 00:00:51;;;;;;;14.65;3.80;;;12.20;99.90;;;;;;5031246;28;20049;-83
2023/05/17 00:03:17;;;;;;;14.75;4.63;;;12.10;99.90;;;;;;5030976;28;20409;-83
2023/05/17 00:05:43;;;;;;;10.68;3.58;;;12.10;99.90;;;;;;5031753;28;20112;-83
2023/05/17 00:08:08;;;;;;;13.27;3.92;;;12.10;99.90;;;;;;5031921;28;20500;-83
2023/05/17 00:10:34;;;;;;;15.38;4.10;;;12.10;99.90;;;;;;5030588;28;20496;-83
2023/05/17 00:13:00;;;;;;;10.75;4.32;;;12.20;99.90;;;;;;5031614;28;20519;-83
2023/05/17 00:15:25;;;;;;;15.98;5.07;;;12.10;99.90;;;;;;5031549;28;20021;-83
2023/05/17 00:17:51;;;;;;;14.77;3.80;;;12.20;99.90;;;;;;5029099;28;20041;-83
2023/05/17 00:20:16;;;;;;;13.45;4.18;;;12.10;99.90;;;;;;5031460;28;20029;-83
2023/05/17 00:22:44;;;;;;;15.73;4.40;;;12.20;99.90;;;;;;5030426;28;20043;-83
2023/05/17 00:25:10;;;;;;;14.02;4.15;;;12.20;99.90;;;;;;5031657;28;20029;-83
2023/05/17 00:27:35;;;;;;;13.93;4.97;;;12.20;99.90;;;;;;5031127;28;20514;-83
2023/05/17 00:30:01;;;;;;;13.07;4.78;;;12.20;99.90;;;;;;5030582;28;20483;-83
2023/05/17 00:32:26;;;;;;;12.75;4.90;;;12.20;99.90;;;;;;5031432;28;20043;-83
2023/05/17 00:34:52;;;;;;;16.52;4.32;;;12.20;99.90;;;;;;5031173;28;20441;-83
2023/05/17 00:37:17;;;;;;;11.40;4.45;;;12.20;99.90;;;;;;5030725;28;20026;-83
2023/05/17 00:39:43;;;;;;;11.93;4.43;;;12.20;99.90;;;;;;5031104;28;20021;-83
2023/05/17 00:42:20;;;;;;;15.95;4.57;;;12.20;99.90;;;;;;5031492;28;20077;-83
2023/05/17 00:44:46;;;;;;;17.15;3.97;;;12.10;99.90;;;;;;5029491;28;20053;-83
2023/05/17 00:47:11;;;;;;;17.80;4.88;;;12.10;99.90;;;;;;5031199;28;20094;-83
2023/05/17 00:49:37;;;;;;;20.10;4.82;;;12.10;99.90;;;;;;5031126;28;20041;-83
2023/05/17 00:52:03;;;;;;;12.43;4.28;;;12.10;99.90;;;;;;5030489;28;20037;-82
2023/05/17 00:54:30;;;;;;;14.93;4.93;;;12.10;99.90;;;;;;5031009;28;20164;-83
2023/05/17 00:56:56;;;;;;;25.08;5.22;;;12.10;99.90;;;;;;5030772;28;20028;-84
2023/05/17 01:02:17;;;;;;;13.10;4.47;;;12.20;99.90;;;;;;5031236;28;20029;-84
2023/05/17 01:04:56;;;;;;;14.30;5.20;;;13.10;99.90;;;;;;5030972;28;20022;-83
2023/05/17 01:07:34;;;;;;;16.38;4.65;;;12.70;99.90;;;;;;5030809;28;20026;-83
2023/05/17 01:10:00;;;;;;;17.35;5.65;;;12.30;99.90;;;;;;5030585;28;20038;-83
2023/05/17 01:12:42;;;;;;;18.42;5.28;;;12.20;99.90;;;;;;5030260;28;20117;-83
2023/05/17 01:15:14;;;;;;;27.33;5.70;;;12.20;99.90;;;;;;5030942;28;20058;-83
2023/05/17 01:17:50;;;;;;;17.65;5.38;;;12.10;99.90;;;;;;5030354;28;20025;-83
2023/05/17 01:20:22;;;;;;;18.50;5.55;;;12.10;99.90;;;;;;5030267;28;20132;-83
2023/05/17 01:23:02;;;;;;;17.98;5.38;;;12.10;99.90;;;;;;5030274;28;20021;-83
2023/05/17 01:25:53;;;;;;;11.13;4.57;;;12.10;99.90;;;;;;5030799;28;20032;-84
2023/05/17 01:28:21;;;;;;;18.23;5.25;;;12.10;99.90;;;;;;5001584;28;20029;-84
2023/05/17 01:30:56;;;;;;;17.45;5.43;;;12.10;99.90;;;;;;5030007;28;20038;-83
2023/05/17 01:33:22;;;;;;;25.42;5.88;;;12.20;99.90;;;;;;5029943;28;20033;-83
2023/05/17 01:35:48;;;;;;;18.45;5.00;;;12.10;99.90;;;;;;5029999;28;20544;-83
2023/05/17 01:38:14;;;;;;;18.42;5.45;;;12.10;99.90;;;;;;5030511;28;20117;-83
2023/05/17 01:40:53;;;;;;;15.35;5.55;;;12.40;99.90;;;;;;5029160;28;20473;-83
2023/05/17 01:43:30;;;;;;;11.05;4.20;;;12.10;99.90;;;;;;5030082;28;20044;-83
2023/05/17 01:46:21;;;;;;;24.20;5.15;;;12.10;99.90;;;;;;5029823;28;20488;-83
2023/05/17 01:48:59;;;;;;;12.80;5.10;;;12.20;99.90;;;;;;5001879;28;20078;-83
2023/05/17 01:51:30;;;;;;;18.75;4.88;;;12.10;99.90;;;;;;5029931;28;20581;-84
2023/05/17 01:54:01;;;;;;;15.32;5.45;;;12.20;99.90;;;;;;5029938;28;20022;-83
2023/05/17 01:56:32;;;;;;;18.98;4.85;;;12.10;99.90;;;;;;5028507;28;20082;-83
2023/05/17 01:59:06;;;;;;;25.70;6.57;;;12.10;99.90;;;;;;5029965;28;20377;-83
2023/05/17 02:01:32;;;;;;;26.70;5.80;;;12.20;99.90;;;;;;5027544;28;20473;-83
2023/05/17 02:03:58;;;;;;;19.00;5.75;;;12.20;99.90;;;;;;5030125;28;20481;-84
2023/05/17 02:06:23;;;;;;;21.55;5.70;;;12.20;99.90;;;;;;5029638;28;20022;-83
2023/05/17 02:08:49;;;;;;;14.60;4.57;;;12.20;99.90;;;;;;5028637;28;20037;-83
2023/05/17 02:11:15;;;;;;;16.15;6.03;;;12.10;99.90;;;;;;5029905;28;20060;-83
2023/05/17 02:13:40;;;;;;;12.52;4.18;;;12.10;99.90;;;;;;5029552;28;20060;-83
2023/05/17 02:16:06;;;;;;;13.77;5.45;;;12.10;99.90;;;;;;5029140;28;20027;-83
2023/05/17 02:18:34;;;;;;;13.68;4.60;;;12.10;99.90;;;;;;5029491;28;20033;-84
2023/05/17 02:21:00;;;;;;;18.20;4.65;;;12.10;99.90;;;;;;5029509;28;20029;-83
2023/05/17 02:23:26;;;;;;;18.98;5.72;;;12.10;99.90;;;;;;5029111;28;20417;-83
2023/05/17 02:25:51;;;;;;;29.55;5.38;;;12.10;99.90;;;;;;5029280;28;20783;-84
2023/05/17 02:28:17;;;;;;;14.70;4.75;;;12.10;99.90;;;;;;5029292;28;20487;-83
2023/05/17 02:30:43;;;;;;;20.05;5.60;;;12.10;99.90;;;;;;5028324;28;20072;-82
2023/05/17 02:33:08;;;;;;;15.73;6.07;;;12.10;99.90;;;;;;5029678;28;20024;-83
2023/05/17 02:35:34;;;;;;;16.88;5.57;;;12.10;99.90;;;;;;5029204;28;20448;-83
2023/05/17 02:38:00;;;;;;;13.43;5.30;;;12.00;99.90;;;;;;5028795;28;20108;-83
2023/05/17 02:40:25;;;;;;;21.17;5.85;;;12.10;99.90;;;;;;5029265;28;20022;-83
2023/05/17 02:42:51;;;;;;;16.65;5.45;;;12.10;99.90;;;;;;5028923;28;20068;-83
2023/05/17 02:45:16;;;;;;;16.73;5.18;;;12.00;99.90;;;;;;5028534;28;20049;-83
2023/05/17 02:47:42;;;;;;;15.73;5.10;;;12.00;99.90;;;;;;5029027;28;20515;-83
2023/05/17 02:50:08;;;;;;;22.55;5.63;;;12.00;99.90;;;;;;5029005;28;20086;-83
2023/05/17 02:52:34;;;;;;;14.20;5.20;;;12.10;99.90;;;;;;5028478;28;20040;-84
2023/05/17 02:54:59;;;;;;;23.92;6.85;;;12.00;99.90;;;;;;5028990;28;20393;-84
2023/05/17 02:57:25;;;;;;;13.13;5.18;;;12.10;99.90;;;;;;5028537;28;20346;-83
2023/05/17 02:59:50;;;;;;;14.73;5.00;;;12.10;99.90;;;;;;5028756;28;20052;-83
2023/05/17 03:02:16;;;;;;;20.05;5.30;;;12.10;99.90;;;;;;5028941;28;20429;-83
2023/05/17 03:04:41;;;;;;;16.15;4.82;;;12.10;99.90;;;;;;5027905;28;20066;-83
2023/05/17 03:07:07;;;;;;;19.92;6.50;;;12.10;99.90;;;;;;5029935;28;20018;-83
2023/05/17 03:09:33;;;;;;;20.38;5.43;;;12.10;99.90;;;;;;5032322;28;20037;-83
2023/05/17 03:11:58;;;;;;;19.30;5.63;;;12.10;99.90;;;;;;5031753;28;20062;-84
2023/05/17 03:14:24;;;;;;;14.82;5.53;;;12.10;99.90;;;;;;5032397;28;20037;-84
2023/05/17 03:16:49;;;;;;;17.45;5.13;;;12.10;99.90;;;;;;5032157;28;20028;-83
2023/05/17 03:19:15;;;;;;;18.35;6.60;;;12.10;99.90;;;;;;5031731;28;20022;-83
2023/05/17 03:21:40;;;;;;;16.45;5.88;;;12.10;99.90;;;;;;5031952;28;20037;-83
2023/05/17 03:24:06;;;;;;;30.25;6.90;;;12.10;99.90;;;;;;5032278;28;20108;-83
2023/05/17 03:26:32;;;;;;;14.32;5.72;;;12.10;99.90;;;;;;5032040;28;20033;-83
2023/05/17 03:28:58;;;;;;;21.77;5.60;;;12.20;99.90;;;;;;5032583;28;20524;-83
2023/05/17 03:31:24;;;;;;;20.90;5.75;;;12.20;99.90;;;;;;5032288;28;20037;-83
2023/05/17 03:33:50;;;;;;;20.65;5.25;;;12.10;99.90;;;;;;5031714;28;20028;-83
2023/05/17 03:36:15;;;;;;;13.88;5.03;;;12.10;99.90;;;;;;5032249;28;20105;-84
2023/05/17 03:38:41;;;;;;;16.98;5.65;;;12.00;99.90;;;;;;5031940;28;20107;-83
2023/05/17 03:41:07;;;;;;;19.90;5.50;;;12.10;99.90;;;;;;5031197;28;20113;-83
2023/05/17 03:43:32;;;;;;;18.98;4.82;;;12.00;99.90;;;;;;5031754;28;20034;-83
2023/05/17 03:46:13;;;;;;;18.90;6.20;;;12.00;99.90;;;;;;5032046;28;20025;-84
2023/05/17 03:48:38;;;;;;;;;;;12.00;99.90;;;;;;5031664;28;20031;-83
2023/05/17 03:51:04;;;;;;;18.85;5.20;;;12.00;99.90;;;;;;5032076;28;19905;-83
2023/05/17 03:53:30;;;;;;;17.77;5.25;;;12.00;99.90;;;;;;5031943;28;20025;-83
2023/05/17 03:55:55;;;;;;;14.50;4.38;;;12.00;99.90;;;;;;5030863;28;20036;-83
2023/05/17 03:58:21;;;;;;;21.35;5.60;;;12.00;99.90;;;;;;5032254;28;20026;-84
2023/05/17 04:00:46;;;;;;;16.73;5.20;;;11.80;99.90;;;;;;5031070;28;20061;-83
2023/05/17 04:03:12;;;;;;;12.10;5.38;;;11.70;99.90;;;;;;5031638;28;20105;-83
2023/05/17 04:05:40;;;;;;;10.95;4.38;;;11.60;99.90;;;;;;5031756;28;20029;-83
2023/05/17 04:08:05;;;;;;;19.77;5.38;;;11.70;99.90;;;;;;5031104;28;20025;-83
2023/05/17 04:10:31;;;;;;;20.98;4.93;;;11.60;99.90;;;;;;5031635;28;20033;-83
2023/05/17 04:12:56;;;;;;;16.58;4.32;;;11.50;99.90;;;;;;5031601;28;20032;-83
2023/05/17 04:15:22;;;;;;;20.25;5.22;;;11.40;99.90;;;;;;5031296;28;20029;-83
2023/05/17 04:17:48;;;;;;;21.88;4.50;;;11.40;99.90;;;;;;5031631;28;20017;-83
2023/05/17 04:20:13;;;;;;;19.17;4.43;;;11.30;99.90;;;;;;5030881;28;20070;-83
2023/05/17 04:22:39;;;;;;;17.65;4.43;;;11.30;99.90;;;;;;5030842;28;20033;-84
2023/05/17 04:25:05;;;;;;;14.98;3.80;;;11.20;99.90;;;;;;5031653;28;20056;-83
2023/05/17 04:27:30;;;;;;;20.67;4.07;;;11.20;99.90;;;;;;5031827;28;20022;-83
2023/05/17 04:29:56;;;;;;;19.35;4.97;;;11.20;99.90;;;;;;5030955;28;20036;-83
2023/05/17 04:32:22;;;;;;;20.73;4.43;;;11.20;99.90;;;;;;5031402;28;20041;-83
2023/05/17 04:34:48;;;;;;;13.35;3.75;;;11.20;99.90;;;;;;5030902;28;20029;-83
2023/05/17 04:37:15;;;;;;;22.40;4.38;;;11.30;99.90;;;;;;5030821;28;20028;-83
2023/05/17 04:39:40;;;;;;;18.15;3.83;;;11.20;99.90;;;;;;5031012;28;20032;-84
2023/05/17 04:42:06;;;;;;;16.75;4.18;;;11.20;99.90;;;;;;5031373;28;20018;-84
2023/05/17 04:44:31;;;;;;;17.85;4.32;;;11.20;99.90;;;;;;5030350;28;20136;-84
2023/05/17 04:46:57;;;;;;;23.60;4.10;;;11.30;99.90;;;;;;5031195;28;20022;-83
2023/05/17 04:49:23;;;;;;;12.13;3.78;;;11.30;99.90;;;;;;5031067;28;20503;-84
2023/05/17 04:51:49;;;;;;;13.98;3.58;;;11.40;99.90;;;;;;5030171;28;20037;-83
2023/05/17 04:54:14;;;;;;;14.65;3.08;;;11.40;99.90;;;;;;5031107;28;20025;-83
2023/05/17 04:56:40;;;;;;;19.80;4.32;;;11.80;99.90;;;;;;5030928;28;20100;-84
2023/05/17 04:59:06;;;;;;;16.98;4.35;;;11.40;99.90;;;;;;5030331;28;20060;-83
2023/05/17 05:01:34;;;;;;;17.98;4.55;;;11.40;99.90;;;;;;5030860;28;20093;-84
2023/05/17 05:03:59;;;;;;;19.65;4.32;;;11.30;99.90;;;;;;5030491;28;20476;-84
2023/05/17 05:06:25;;;;;;;18.33;4.30;;;11.30;99.90;;;;;;5031115;28;20021;-84
2023/05/17 05:08:51;;;;;;;13.82;3.90;;;11.30;99.90;;;;;;5030616;28;20045;-84
2023/05/17 05:11:17;;;;;;;22.30;4.35;;;11.40;99.90;;;;;;5030375;28;20052;-84
2023/05/17 05:13:42;;;;;;;17.90;4.40;;;11.30;99.90;;;;;;5030224;28;20469;-83
2023/05/17 05:16:08;;;;;;;18.13;4.15;;;11.30;99.90;;;;;;5030815;28;20380;-84
2023/05/17 05:18:33;;;;;;;26.02;4.05;;;11.40;99.90;;;;;;5029391;28;20375;-83
2023/05/17 05:20:59;;;;;;;25.55;4.93;;;11.50;99.90;;;;;;5030562;28;20041;-84
2023/05/17 05:23:25;;;;;;;14.60;3.88;;;11.40;99.90;;;;;;5030544;28;20032;-84
2023/05/17 05:25:50;;;;;;;17.25;4.13;;;11.50;99.90;;;;;;5029281;28;20037;-84
2023/05/17 05:28:16;;;;;;;21.75;4.03;;;11.50;99.90;;;;;;5030655;28;20024;-84
2023/05/17 05:30:41;;;;;;;13.15;4.03;;;11.60;99.90;;;;;;5030025;28;20042;-83
2023/05/17 05:33:07;;;;;;;18.75;4.00;;;11.60;99.90;;;;;;5029857;28;20032;-83
2023/05/17 05:35:32;;;;;;;16.95;3.65;;;11.60;99.90;;;;;;5030498;28;20026;-83
2023/05/17 05:37:58;;;;;;;20.63;3.92;;;11.60;99.90;;;;;;5030468;28;20025;-84
2023/05/17 05:40:24;;;;;;;22.85;4.63;;;11.50;99.90;;;;;;5029442;28;20090;-83
2023/05/17 05:42:51;;;;;;;11.75;3.97;;;11.40;99.90;;;;;;5029752;28;20449;-84
2023/05/17 05:45:16;;;;;;;24.70;3.90;;;11.50;99.90;;;;;;5029902;28;20128;-83
2023/05/17 05:47:42;;;;;;;14.57;3.90;;;11.50;99.90;;;;;;5030456;28;20571;-84
2023/05/17 05:50:08;;;;;;;22.40;4.82;;;11.50;99.90;;;;;;5031094;28;20518;-83
2023/05/17 05:52:34;;;;;;;20.55;3.65;;;11.40;99.90;;;;;;5029901;28;20037;-83
2023/05/17 05:55:00;;;;;;;19.35;3.15;;;11.40;99.90;;;;;;5029315;28;20042;-84
2023/05/17 05:57:25;;;;;;;18.15;3.92;;;11.30;99.90;;;;;;5029739;28;20014;-83
2023/05/17 05:59:51;;;;;;;22.60;4.53;;;11.40;99.90;;;;;;5029519;28;20339;-83
2023/05/17 06:02:26;;;;;;;;;;;;;;;;;;;;;
2023/05/17 06:04:52;;;;;;;21.10;3.60;;;11.40;99.90;;;;;;5027529;28;20313;-82
2023/05/17 06:07:18;;;;;;;20.13;3.70;;;11.30;99.90;;;;;;5029700;28;20108;-83
2023/05/17 06:09:43;;;;;;;19.70;3.65;;;11.40;99.90;;;;;;5029537;28;20034;-83
2023/05/17 06:12:09;;;;;;;17.98;2.72;;;11.40;99.90;;;;;;5029808;28;20048;-83
2023/05/17 06:14:36;;;;;;;17.25;3.10;;;11.40;99.90;;;;;;5028651;28;20068;-83
2023/05/17 06:17:02;;;;;;;19.42;3.50;;;11.40;99.90;;;;;;5036519;28;20065;-82
2023/05/17 06:19:27;;;;;;;15.13;3.05;;;11.40;99.90;;;;;;5029717;28;20064;-83
2023/05/17 06:21:53;;;;;;;25.27;4.18;;;11.40;99.90;;;;;;5028921;28;20026;-83
2023/05/17 06:24:18;;;;;;;23.30;4.00;;;11.40;99.90;;;;;;5029720;28;20129;-83
2023/05/17 06:26:45;;;;;;;18.88;3.65;;;11.30;99.90;;;;;;5029210;28;20483;-83
2023/05/17 06:29:11;;;;;;;13.73;3.10;;;11.40;99.90;;;;;;5028843;28;20037;-83
2023/05/17 06:31:37;;;;;;;22.15;3.88;;;11.40;99.90;;;;;;5029387;28;20041;-83
2023/05/17 06:34:02;;;;;;;13.88;3.50;;;11.50;99.90;;;;;;5029668;28;20495;-85
2023/05/17 06:36:28;;;;;;;18.63;4.70;;;11.80;99.90;;;;;;5028886;28;20036;-83
2023/05/17 06:38:53;;;;;;;19.75;3.53;;;11.40;99.90;;;;;;5029333;28;20401;-83
2023/05/17 06:41:19;;;;;;;26.92;4.20;;;11.40;99.90;;;;;;5029540;28;20468;-83
2023/05/17 06:43:45;;;;;;;13.10;2.75;;;11.50;99.90;;;;;;5027921;28;20041;-85
2023/05/17 06:46:10;;;;;;;20.45;4.75;;;11.40;99.90;;;;;;5029862;28;20033;-85
2023/05/17 06:48:36;;;;;;;20.75;3.97;;;11.40;99.90;;;;;;5029052;28;20026;-85
2023/05/17 06:51:01;;;;;;;28.83;5.15;;;11.40;99.90;;;;;;5028988;28;20034;-85
2023/05/17 06:53:33;;;;;;;23.95;4.47;;;11.40;99.90;;;;;;5029767;28;20032;-84
2023/05/17 06:55:59;;;;;;;21.25;3.38;;;11.50;99.90;;;;;;5029286;28;20033;-84
2023/05/17 06:58:24;;;;;;;20.73;3.75;;;11.50;99.90;;;;;;5029168;28;20017;-83
2023/05/17 07:00:50;;;;;;;21.27;3.70;;;11.60;99.90;;;;;;5029220;28;20021;-85
2023/05/17 07:03:15;;;;;;;26.35;4.20;;;11.60;99.90;;;;;;5029537;28;20028;-84
2023/05/17 07:05:41;;;;;;;19.17;3.17;;;11.60;99.90;;;;;;5028036;28;20033;-85
2023/05/17 07:08:06;;;;;;;16.52;3.45;;;11.60;99.90;;;;;;5029295;28;20026;-85
2023/05/17 07:10:32;;;;;;;17.73;2.70;;;11.70;99.90;;;;;;5029642;28;20395;-85
2023/05/17 07:12:58;;;;;;;14.63;3.53;;;11.80;99.90;;;;;;5028727;28;20066;-83
2023/05/17 07:15:23;;;;;;;23.00;3.75;;;11.90;99.90;;;;;;5029255;28;20021;-84
2023/05/17 07:17:49;;;;;;;14.35;2.38;;;11.80;99.90;;;;;;5028424;28;20024;-84
2023/05/17 07:20:15;;;;;;;21.40;3.72;;;11.90;99.90;;;;;;5029329;28;20104;-84
2023/05/17 07:22:40;;;;;;;13.57;3.22;;;11.90;99.90;;;;;;5028784;28;20485;-85
2023/05/17 07:25:07;;;;;;;11.18;2.83;;;12.10;99.90;;;;;;5028055;28;20113;-85
2023/05/17 07:27:32;;;;;;;17.88;3.42;;;12.00;99.90;;;;;;5028951;28;20307;-84
2023/05/17 07:29:59;;;;;;;10.68;2.88;;;12.00;99.90;;;;;;5029086;28;20063;-85
2023/05/17 07:32:24;;;;;;;16.65;2.67;;;12.00;99.90;;;;;;5028495;28;20045;-84
2023/05/17 07:34:50;;;;;;;9.70;2.22;;;12.10;99.90;;;;;;5028709;28;20464;-84
2023/05/17 07:37:15;;;;;;;15.05;2.60;;;12.10;99.90;;;;;;5029007;28;20029;-84
2023/05/17 07:39:41;;;;;;;8.20;2.08;;;12.10;99.90;;;;;;5027814;28;20032;-84
2023/05/17 07:42:07;;;;;;;15.55;2.42;;;12.10;99.90;;;;;;5028973;28;20029;-84
2023/05/17 07:44:32;;;;;;;11.05;2.50;;;12.10;99.90;;;;;;5028554;28;20090;-84
2023/05/17 07:46:58;;;;;;;11.45;2.58;;;12.20;99.90;;;;;;5028377;28;20074;-83
2023/05/17 07:49:26;;;;;;;11.48;2.38;;;12.20;99.90;;;;;;5028701;28;20404;-84
2023/05/17 07:51:51;;;;;;;9.80;2.40;;;12.30;99.90;;;;;;5028687;28;20030;-85
2023/05/17 07:54:25;;;;;;;12.55;2.47;;;12.30;99.90;;;;;;5028779;28;20358;-84
2023/05/17 07:56:53;;;;;;;17.85;2.42;;;12.40;99.90;;;;;;5031585;28;20057;-84
2023/05/17 07:59:20;;;;;;;8.18;2.50;;;12.40;99.90;;;;;;5032191;28;20034;-83
2023/05/17 08:01:46;;;;;;;9.27;2.30;;;12.40;99.90;;;;;;5031145;28;20026;-84
2023/05/17 08:04:13;;;;;;;12.43;2.67;;;12.50;99.90;;;;;;5032277;28;20422;-84
2023/05/17 08:06:39;;;;;;;16.73;2.72;;;12.50;99.90;;;;;;5031450;28;20018;-84
2023/05/17 08:09:05;;;;;;;15.20;3.05;;;12.50;99.90;;;;;;5031257;28;20068;-84
2023/05/17 08:11:33;;;;;;;14.30;3.15;;;12.50;99.90;;;;;;5032012;28;20065;-84
2023/05/17 08:13:59;;;;;;;12.23;2.60;;;12.40;99.90;;;;;;5031313;28;20026;-84
2023/05/17 08:16:25;;;;;;;12.93;2.20;;;12.40;99.90;;;;;;5031820;28;20021;-83
2023/05/17 08:18:51;;;;;;;17.75;2.70;;;12.40;99.90;;;;;;5031205;28;20029;-84
2023/05/17 08:21:16;;;;;;;9.30;2.03;;;12.40;99.90;;;;;;5030963;28;20033;-84
2023/05/17 08:23:42;;;;;;;11.73;2.20;;;12.30;99.90;;;;;;5031644;28;20070;-84
2023/05/17 08:26:08;;;;;;;7.25;1.73;;;12.40;99.90;;;;;;5031494;28;20461;-84
2023/05/17 08:28:34;;;;;;;12.68;3.25;;;12.40;99.90;;;;;;5030999;28;20029;-84
2023/05/17 08:30:59;;;;;;;17.55;2.88;;;12.50;99.90;;;;;;5031605;28;20037;-84
2023/05/17 08:33:26;;;;;;;7.15;1.98;;;12.50;99.90;;;;;;5034855;28;20485;-83
2023/05/17 08:35:54;;;;;;;9.82;2.13;;;12.50;99.90;;;;;;5030749;28;20200;-84
2023/05/17 08:38:20;;;;;;;10.52;2.15;;;12.60;99.90;;;;;;5031788;28;20485;-84
2023/05/17 08:40:55;;;;;;;7.78;1.95;;;12.50;99.90;;;;;;5031077;28;20158;-84
2023/05/17 08:43:23;;;;;;;7.82;2.03;;;12.50;99.90;;;;;;5030732;28;20025;-84
2023/05/17 08:45:49;;;;;;;8.48;1.95;;;12.60;99.90;;;;;;5030888;28;20549;-84
2023/05/17 08:48:18;;;;;;;8.25;2.30;;;12.60;99.90;;;;;;5031069;28;20017;-84
2023/05/17 08:50:45;;;;;;;8.77;2.65;;;12.50;99.90;;;;;;5030117;28;20044;-84
2023/05/17 08:53:12;;;;;;;9.07;1.77;;;12.70;99.90;;;;;;5031300;28;20022;-84
2023/05/17 08:55:41;;;;;;;15.02;2.47;;;12.80;99.90;;;;;;5030746;28;20469;-84
2023/05/17 08:58:07;;;;;;;5.13;1.45;;;12.80;99.90;;;;;;5030479;28;20061;-84
2023/05/17 09:00:34;;;;;;;6.45;2.05;;;12.80;99.90;;;;;;5030815;28;20033;-84
2023/05/17 09:02:59;;;;;;;8.65;1.92;;;12.80;99.90;;;;;;5031042;28;20022;-84
2023/05/17 09:05:26;;;;;;;11.45;2.15;;;12.90;99.90;;;;;;5030147;28;20419;-83
2023/05/17 09:07:53;;;;;;;19.02;2.72;;;12.80;99.90;;;;;;5030726;28;20159;-84
2023/05/17 09:10:19;;;;;;;10.88;2.20;;;12.80;99.90;;;;;;5030091;28;20040;-83
2023/05/17 09:12:45;;;;;;;9.32;2.10;;;12.80;99.90;;;;;;5030854;28;20120;-84
2023/05/17 09:15:15;;;;;;;8.18;1.45;;;12.80;99.90;;;;;;5030753;28;20029;-84
2023/05/17 09:17:41;;;;;;;10.27;1.98;;;12.80;99.90;;;;;;5029809;28;20100;-84
2023/05/17 09:20:08;;;;;;;8.57;2.40;;;12.80;99.90;;;;;;5030732;28;20362;-84
2023/05/17 09:22:35;;;;;;;8.75;1.52;;;12.80;99.90;;;;;;5030510;28;20050;-84
2023/05/17 09:25:03;;;;;;;7.72;2.03;;;12.90;99.90;;;;;;5030235;28;20393;-84
2023/05/17 09:27:30;;;;;;;6.20;2.67;;;12.90;99.90;;;;;;5030576;28;20025;-84
2023/05/17 09:29:57;;;;;;;8.52;1.88;;;12.90;99.90;;;;;;5030594;28;20396;-84
2023/05/17 09:32:23;;;;;;;11.95;2.22;;;13.00;99.90;;;;;;5029982;28;20113;-84
2023/05/17 09:34:56;;;;;;;6.63;1.77;;;13.60;99.90;;;;;;5030322;28;20059;-84
2023/05/17 09:37:22;;;;;;;5.40;1.90;;;13.00;99.90;;;;;;5030564;28;20022;-84
2023/05/17 09:39:47;;;;;;;9.98;1.95;;;12.90;99.90;;;;;;5030081;28;20073;-84
2023/05/17 09:42:15;;;;;;;11.57;2.80;;;13.30;99.90;;;;;;5030793;28;20029;-84
2023/05/17 09:44:48;;;;;;;10.93;2.00;;;13.00;99.90;;;;;;5030020;28;20049;-84
2023/05/17 09:47:24;;;;;;;5.57;1.30;;;13.00;99.90;;;;;;5029800;28;20060;-84
2023/05/17 09:49:49;;;;;;;5.75;1.95;;;13.10;99.90;;;;;;5029809;28;20528;-84
2023/05/17 09:52:19;;;;;;;11.48;2.10;;;13.10;99.90;;;;;;5030426;28;20045;-83
2023/05/17 09:54:52;;;;;;;10.43;1.85;;;13.10;99.90;;;;;;5029530;28;20488;-83
2023/05/17 09:57:18;;;;;;;9.90;1.55;;;13.00;99.90;;;;;;5030669;28;20029;-84
2023/05/17 09:59:45;;;;;;;6.82;1.60;;;13.00;99.90;;;;;;5029464;28;20037;-83
2023/05/17 10:02:18;;;;;;;11.32;2.08;;;13.00;99.90;;;;;;5030102;28;20033;-83
2023/05/17 10:04:47;;;;;;;8.98;1.92;;;13.10;99.90;;;;;;5030153;28;20025;-83
2023/05/17 10:07:13;;;;;;;7.90;1.90;;;13.10;99.90;;;;;;5029314;28;20025;-84
2023/05/17 10:09:39;;;;;;;7.47;1.90;;;13.10;99.90;;;;;;5029489;28;20066;-84
2023/05/17 10:12:09;;;;;;;9.50;2.05;;;13.10;99.90;;;;;;5030151;28;20385;-84
2023/05/17 10:14:35;;;;;;;10.45;3.17;;;13.10;99.90;;;;;;5029124;28;20090;-84
2023/05/17 10:17:01;;;;;;;5.65;1.75;;;13.10;99.90;;;;;;5028830;28;20022;-84
2023/05/17 10:19:27;;;;;;;8.98;2.05;;;13.20;99.90;;;;;;5029799;28;20034;-83
2023/05/17 10:21:56;;;;;;;11.57;2.08;;;13.20;99.90;;;;;;5028993;28;20062;-84
2023/05/17 10:24:22;;;;;;;11.77;2.67;;;13.20;99.90;;;;;;5029813;28;20034;-83
2023/05/17 10:26:51;;;;;;;9.68;2.50;;;13.20;99.90;;;;;;5029731;28;20027;-84
2023/05/17 10:29:19;;;;;;;8.48;1.98;;;13.30;99.90;;;;;;5028887;28;20495;-84
2023/05/17 10:31:46;;;;;;;12.38;2.47;;;13.30;99.90;;;;;;5029338;28;20064;-83
2023/05/17 10:34:15;;;;;;;11.48;2.58;;;13.30;99.90;;;;;;5029938;28;20112;-84
2023/05/17 10:36:42;;;;;;;7.40;2.88;;;13.30;99.90;;;;;;5028656;28;20464;-84
2023/05/17 10:39:09;;;;;;;11.73;2.78;;;13.30;99.90;;;;;;5029382;28;20376;-84
2023/05/17 10:41:40;;;;;;;6.22;2.17;;;13.40;99.90;;;;;;5028952;28;20099;-84
2023/05/17 10:44:07;;;;;;;9.77;2.78;;;13.40;99.90;;;;;;5029295;28;20048;-84
2023/05/17 10:46:33;;;;;;;12.00;2.03;;;13.50;99.90;;;;;;5029639;28;20029;-84
2023/05/17 10:49:00;;;;;;;12.00;2.47;;;13.50;99.90;;;;;;5028791;28;20449;-84
2023/05/17 10:51:30;;;;;;;15.68;2.50;;;13.50;99.90;;;;;;5029617;28;20029;-84
2023/05/17 10:54:10;;;;;;;9.07;2.80;;;13.50;99.90;;;;;;5029310;28;20036;-84
2023/05/17 10:56:45;;;;;;;6.28;2.33;;;13.50;99.90;;;;;;5028456;28;20033;-83
2023/05/17 10:59:23;;;;;;;6.05;2.40;;;13.50;99.90;;;;;;5029339;28;20029;-84
2023/05/17 11:02:00;;;;;;;5.55;2.17;;;13.60;99.90;;;;;;5029150;28;20097;-84
2023/05/17 11:04:37;;;;;;;8.68;2.70;;;13.60;99.90;;;;;;5028522;28;20536;-84
2023/05/17 11:07:15;;;;;;;12.63;2.88;;;13.60;99.90;;;;;;5029300;28;20025;-84
2023/05/17 11:10:07;;;;;;;11.35;2.35;;;13.60;99.90;;;;;;5028942;28;20094;-84
2023/05/17 11:12:52;;;;;;;5.05;1.77;;;13.60;99.90;;;;;;5021998;28;20029;-85
2023/05/17 11:15:22;;;;;;;9.93;2.10;;;13.70;99.90;;;;;;5029524;28;20025;-84
2023/05/17 11:17:53;;;;;;;7.15;2.35;;;13.70;99.90;;;;;;5028365;28;20025;-84
2023/05/17 11:20:24;;;;;;;14.27;2.90;;;13.70;99.90;;;;;;5029292;28;20037;-84
2023/05/17 11:23:06;;;;;;;11.07;2.50;;;13.70;99.90;;;;;;5029055;28;20411;-84
2023/05/17 11:25:35;;;;;;;10.75;2.30;;;13.80;99.90;;;;;;5028337;28;20053;-84
2023/05/17 11:28:08;;;;;;;9.98;2.75;;;13.80;99.90;;;;;;5029640;28;20108;-84
2023/05/17 11:30:38;;;;;;;5.93;2.40;;;13.80;99.90;;;;;;5030096;28;20076;-85
2023/05/17 11:33:05;;;;;;;14.00;2.40;;;13.90;99.90;;;;;;5030994;28;20026;-85
2023/05/17 11:35:38;;;;;;;8.25;2.47;;;13.90;99.90;;;;;;5022100;28;20037;-86
2023/05/17 11:38:13;;;;;;;16.42;2.65;;;13.90;99.90;;;;;;5012097;28;20022;-86
2023/05/17 11:40:39;;;;;;;7.95;2.08;;;13.90;99.90;;;;;;5012037;28;20108;-88
2023/05/17 11:43:20;;;;;;;7.90;1.92;;;13.90;99.90;;;;;;5030583;28;20468;-87
2023/05/17 11:45:49;;;;;;;8.38;2.95;;;14.00;99.90;;;;;;5029817;28;20446;-87
2023/05/17 11:48:16;;;;;;;8.95;2.42;;;14.00;99.90;;;;;;5031759;28;20037;-88
2023/05/17 11:50:44;;;;;;;9.07;2.33;;;14.10;99.90;;;;;;5022374;27;20134;-87
2023/05/17 11:53:10;;;;;;;8.48;2.30;;;14.50;99.90;;;;;;5034372;27;20053;-86
2023/05/17 11:55:40;;;;;;;6.95;2.25;;;14.10;99.90;;;;;;5029935;28;20044;-88
2023/05/17 11:58:11;;;;;;;16.33;3.35;;;14.10;99.90;;;;;;5029383;28;20571;-89
2023/05/17 12:00:39;;;;;;;7.47;2.05;;;14.20;99.90;;;;;;5028408;28;20493;-87
2023/05/17 12:03:25;;;;;;;11.57;2.42;;;14.10;99.90;;;;;;5031349;28;20022;-89
2023/05/17 12:06:01;;;;;;;6.47;2.13;;;14.20;99.90;;;;;;5031510;28;20396;-89
2023/05/17 12:08:27;;;;;;;11.32;3.15;;;14.10;99.90;;;;;;5026500;28;20105;-88
2023/05/17 12:10:55;;;;;;;10.30;2.47;;;14.20;99.90;;;;;;5027631;28;20124;-86
2023/05/17 12:13:21;;;;;;;16.25;2.72;;;14.20;99.90;;;;;;5027120;28;20022;-87
2023/05/17 12:15:57;;;;;;;12.07;2.47;;;14.20;99.90;;;;;;5027846;28;20028;-83
2023/05/17 12:18:34;;;;;;;13.90;2.22;;;14.20;99.90;;;;;;5021120;28;20037;-83
2023/05/17 12:21:00;;;;;;;12.52;2.42;;;14.30;99.90;;;;;;5008718;28;20029;-83
2023/05/17 12:23:28;;;;;;;15.43;3.15;;;14.40;99.90;;;;;;5009187;28;20107;-84
2023/05/17 12:26:15;;;;;;;9.10;2.13;;;14.50;99.90;;;;;;5009762;28;20025;-83
2023/05/17 12:28:43;;;;;;;6.82;2.47;;;14.40;99.90;;;;;;5021390;27;20033;-84
2023/05/17 12:31:15;;;;;;;12.23;2.60;;;14.40;99.90;;;;;;5051427;27;20041;-83
2023/05/17 12:33:42;;;;;;;10.05;2.25;;;14.40;99.90;;;;;;5018945;28;20067;-84
2023/05/17 12:36:11;;;;;;;12.45;2.65;;;14.50;99.90;;;;;;5016095;28;20033;-83
2023/05/17 12:38:39;;;;;;;10.45;2.35;;;14.50;99.90;;;;;;5028057;28;20029;-84
2023/05/17 12:41:07;;;;;;;12.18;3.10;;;14.50;99.90;;;;;;5028921;28;20017;-84
2023/05/17 12:43:34;;;;;;;13.80;2.28;;;14.50;99.90;;;;;;5026720;28;20025;-84
2023/05/17 12:46:05;;;;;;;12.90;2.60;;;14.50;99.90;;;;;;5030649;28;20048;-83